sensor_id;sensor_type;location;lat;lon;timestamp;pressure;altitude;pressure_sealevel;temperature;humidity
63554;BME280;49699;48.072;7.800;2022-11-15T00:01:38;99168.44;;;7.79;94.29
63554;BME280;49699;48.072;7.800;2022-11-15T00:04:22;99168.59;;;7.76;94.57
63554;BME280;49699;48.072;7.800;2022-11-15T00:07:05;99160.97;;;7.73;94.45
63554;BME280;49699;48.072;7.800;2022-11-15T00:09:49;99160.19;;;7.71;94.25
63554;BME280;49699;48.072;7.800;2022-11-15T00:12:33;99160.31;;;7.70;94.46
63554;BME280;49699;48.072;7.800;2022-11-15T00:15:17;99153.47;;;7.69;94.88
63554;BME280;49699;48.072;7.800;2022-11-15T00:18:02;99158.63;;;7.69;94.80
63554;BME280;49699;48.072;7.800;2022-11-15T00:20:46;99154.28;;;7.69;94.68
63554;BME280;49699;48.072;7.800;2022-11-15T00:23:30;99145.69;;;7.69;94.33
63554;BME280;49699;48.072;7.800;2022-11-15T00:26:14;99145.75;;;7.67;94.41
63554;BME280;49699;48.072;7.800;2022-11-15T00:28:58;99144.00;;;7.68;94.61
63554;BME280;49699;48.072;7.800;2022-11-15T00:31:42;99136.31;;;7.66;94.18
63554;BME280;49699;48.072;7.800;2022-11-15T00:34:26;99150.94;;;7.67;94.07
63554;BME280;49699;48.072;7.800;2022-11-15T00:37:10;99141.41;;;7.68;94.42
63554;BME280;49699;48.072;7.800;2022-11-15T00:39:54;99131.91;;;7.68;94.68
63554;BME280;49699;48.072;7.800;2022-11-15T00:42:38;99136.16;;;7.69;94.68
63554;BME280;49699;48.072;7.800;2022-11-15T00:45:22;99134.31;;;7.71;94.36
63554;BME280;49699;48.072;7.800;2022-11-15T00:48:07;99136.91;;;7.71;94.40
63554;BME280;49699;48.072;7.800;2022-11-15T00:50:50;99142.06;;;7.71;94.21
63554;BME280;49699;48.072;7.800;2022-11-15T00:53:34;99129.88;;;7.73;94.30
63554;BME280;49699;48.072;7.800;2022-11-15T00:56:18;99128.06;;;7.75;94.37
63554;BME280;49699;48.072;7.800;2022-11-15T00:59:02;99121.81;;;7.79;94.38
63554;BME280;49699;48.072;7.800;2022-11-15T01:01:46;99124.31;;;7.81;94.27
63554;BME280;49699;48.072;7.800;2022-11-15T01:04:30;99122.34;;;7.86;93.92
63554;BME280;49699;48.072;7.800;2022-11-15T01:07:14;99124.75;;;7.89;94.52
63554;BME280;49699;48.072;7.800;2022-11-15T01:09:58;99125.44;;;7.92;93.82
63554;BME280;49699;48.072;7.800;2022-11-15T01:12:42;99124.38;;;7.96;94.27
63554;BME280;49699;48.072;7.800;2022-11-15T01:15:26;99114.75;;;7.98;94.13
63554;BME280;49699;48.072;7.800;2022-11-15T01:18:10;99112.03;;;8.01;94.19
63554;BME280;49699;48.072;7.800;2022-11-15T01:20:54;99115.28;;;8.05;94.20
63554;BME280;49699;48.072;7.800;2022-11-15T01:23:38;99116.84;;;8.08;93.93
63554;BME280;49699;48.072;7.800;2022-11-15T01:26:23;99109.84;;;8.10;93.77
63554;BME280;49699;48.072;7.800;2022-11-15T01:29:07;99105.41;;;8.12;93.84
63554;BME280;49699;48.072;7.800;2022-11-15T01:31:52;99103.50;;;8.15;93.56
63554;BME280;49699;48.072;7.800;2022-11-15T01:34:36;99101.59;;;8.19;93.86
63554;BME280;49699;48.072;7.800;2022-11-15T01:37:20;99092.91;;;8.20;93.54
63554;BME280;49699;48.072;7.800;2022-11-15T01:40:04;99097.94;;;8.23;93.49
63554;BME280;49699;48.072;7.800;2022-11-15T01:42:49;99096.06;;;8.25;93.58
63554;BME280;49699;48.072;7.800;2022-11-15T01:45:33;99092.47;;;8.27;93.52
63554;BME280;49699;48.072;7.800;2022-11-15T01:48:16;99094.06;;;8.30;93.73
63554;BME280;49699;48.072;7.800;2022-11-15T01:51:01;99088.81;;;8.31;93.49
63554;BME280;49699;48.072;7.800;2022-11-15T01:53:47;99081.03;;;8.31;93.71
63554;BME280;49699;48.072;7.800;2022-11-15T01:56:33;99085.25;;;8.34;93.59
63554;BME280;49699;48.072;7.800;2022-11-15T01:59:19;99081.66;;;8.37;93.64
63554;BME280;49699;48.072;7.800;2022-11-15T02:02:03;99079.16;;;8.35;93.86
63554;BME280;49699;48.072;7.800;2022-11-15T02:04:47;99080.00;;;8.35;94.02
63554;BME280;49699;48.072;7.800;2022-11-15T02:07:31;99081.75;;;8.35;93.84
63554;BME280;49699;48.072;7.800;2022-11-15T02:10:19;99073.97;;;8.35;93.42
63554;BME280;49699;48.072;7.800;2022-11-15T02:13:04;99071.44;;;8.33;94.07
63554;BME280;49699;48.072;7.800;2022-11-15T02:18:41;99058.69;;;8.29;93.98
63554;BME280;49699;48.072;7.800;2022-11-15T02:21:31;99057.84;;;8.28;94.17
63554;BME280;49699;48.072;7.800;2022-11-15T02:24:26;99055.44;;;8.25;93.74
63554;BME280;49699;48.072;7.800;2022-11-15T02:33:24;99055.78;;;8.19;94.39
63554;BME280;49699;48.072;7.800;2022-11-15T02:36:15;99063.72;;;8.16;94.31
63554;BME280;49699;48.072;7.800;2022-11-15T02:39:46;99057.69;;;8.16;94.38
63554;BME280;49699;48.072;7.800;2022-11-15T02:45:33;99035.03;;;8.19;94.11
63554;BME280;49699;48.072;7.800;2022-11-15T02:48:19;99036.72;;;8.20;94.62
63554;BME280;49699;48.072;7.800;2022-11-15T02:51:03;99034.13;;;8.20;94.47
63554;BME280;49699;48.072;7.800;2022-11-15T02:53:47;99027.19;;;8.21;94.64
63554;BME280;49699;48.072;7.800;2022-11-15T02:56:31;99040.06;;;8.22;93.92
63554;BME280;49699;48.072;7.800;2022-11-15T03:04:54;99033.13;;;8.23;94.06
63554;BME280;49699;48.072;7.800;2022-11-15T03:07:58;99031.38;;;8.23;94.37
63554;BME280;49699;48.072;7.800;2022-11-15T03:16:27;99040.47;;;8.30;94.33
63554;BME280;49699;48.072;7.800;2022-11-15T03:19:17;99030.09;;;8.30;93.66
63554;BME280;49699;48.072;7.800;2022-11-15T03:22:04;99048.03;;;8.35;93.67
63554;BME280;49699;48.072;7.800;2022-11-15T03:24:52;99045.34;;;8.37;93.60
63554;BME280;49699;48.072;7.800;2022-11-15T03:27:38;99047.94;;;8.37;93.56
63554;BME280;49699;48.072;7.800;2022-11-15T03:30:24;99041.00;;;8.37;93.63
63554;BME280;49699;48.072;7.800;2022-11-15T03:33:08;99040.09;;;8.38;94.08
63554;BME280;49699;48.072;7.800;2022-11-15T03:35:52;99036.75;;;8.36;93.85
63554;BME280;49699;48.072;7.800;2022-11-15T03:38:37;99020.28;;;8.37;93.87
63554;BME280;49699;48.072;7.800;2022-11-15T03:41:23;99016.75;;;8.38;93.90
63554;BME280;49699;48.072;7.800;2022-11-15T03:47:16;99017.44;;;8.42;93.51
63554;BME280;49699;48.072;7.800;2022-11-15T03:50:04;99011.28;;;8.43;93.86
63554;BME280;49699;48.072;7.800;2022-11-15T03:52:51;99018.91;;;8.46;93.93
63554;BME280;49699;48.072;7.800;2022-11-15T03:55:37;99031.88;;;8.46;93.64
63554;BME280;49699;48.072;7.800;2022-11-15T03:58:21;99024.94;;;8.46;93.67
63554;BME280;49699;48.072;7.800;2022-11-15T04:01:05;99022.34;;;8.46;93.29
63554;BME280;49699;48.072;7.800;2022-11-15T04:03:49;99035.13;;;8.49;93.38
63554;BME280;49699;48.072;7.800;2022-11-15T04:06:33;99033.28;;;8.51;93.40
63554;BME280;49699;48.072;7.800;2022-11-15T04:09:17;99033.22;;;8.53;93.28
63554;BME280;49699;48.072;7.800;2022-11-15T04:12:01;99034.06;;;8.53;93.15
63554;BME280;49699;48.072;7.800;2022-11-15T04:14:45;99033.13;;;8.54;93.53
63554;BME280;49699;48.072;7.800;2022-11-15T04:17:51;99026.09;;;8.56;93.52
63554;BME280;49699;48.072;7.800;2022-11-15T04:20:35;99028.63;;;8.58;93.76
63554;BME280;49699;48.072;7.800;2022-11-15T04:23:38;99026.03;;;8.58;93.42
63554;BME280;49699;48.072;7.800;2022-11-15T04:26:41;99030.38;;;8.57;93.46
63554;BME280;49699;48.072;7.800;2022-11-15T04:29:25;99024.34;;;8.57;93.29
63554;BME280;49699;48.072;7.800;2022-11-15T04:32:18;99016.47;;;8.58;93.39
63554;BME280;49699;48.072;7.800;2022-11-15T04:35:02;99010.25;;;8.61;93.25
63554;BME280;49699;48.072;7.800;2022-11-15T04:37:46;99014.53;;;8.62;93.30
63554;BME280;49699;48.072;7.800;2022-11-15T04:40:30;99015.38;;;8.62;93.67
63554;BME280;49699;48.072;7.800;2022-11-15T04:43:14;99007.50;;;8.64;93.61
63554;BME280;49699;48.072;7.800;2022-11-15T04:45:58;99016.03;;;8.66;93.29
63554;BME280;49699;48.072;7.800;2022-11-15T04:48:42;99020.31;;;8.67;93.62
63554;BME280;49699;48.072;7.800;2022-11-15T04:51:26;99005.75;;;8.64;93.48
63554;BME280;49699;48.072;7.800;2022-11-15T04:54:10;99015.94;;;8.67;93.20
63554;BME280;49699;48.072;7.800;2022-11-15T04:56:55;99007.25;;;8.68;93.28
63554;BME280;49699;48.072;7.800;2022-11-15T04:59:38;99012.28;;;8.72;93.20
63554;BME280;49699;48.072;7.800;2022-11-15T05:02:23;99011.25;;;8.74;93.09
63554;BME280;49699;48.072;7.800;2022-11-15T05:05:07;99009.41;;;8.76;92.92
63554;BME280;49699;48.072;7.800;2022-11-15T05:07:51;99000.50;;;8.80;92.72
63554;BME280;49699;48.072;7.800;2022-11-15T05:10:34;99008.13;;;8.83;92.60
63554;BME280;49699;48.072;7.800;2022-11-15T05:13:18;99002.78;;;8.86;92.24
63554;BME280;49699;48.072;7.800;2022-11-15T05:16:02;99003.44;;;8.90;92.56
63554;BME280;49699;48.072;7.800;2022-11-15T05:18:46;98999.91;;;8.91;92.40
63554;BME280;49699;48.072;7.800;2022-11-15T05:21:30;98995.56;;;8.91;92.33
63554;BME280;49699;48.072;7.800;2022-11-15T05:24:15;98987.88;;;8.90;92.26
63554;BME280;49699;48.072;7.800;2022-11-15T05:26:59;98997.31;;;8.91;92.41
63554;BME280;49699;48.072;7.800;2022-11-15T05:29:43;98991.13;;;8.93;92.45
63554;BME280;49699;48.072;7.800;2022-11-15T05:32:27;98989.38;;;8.94;92.17
63554;BME280;49699;48.072;7.800;2022-11-15T05:35:12;98987.50;;;8.96;91.82
63554;BME280;49699;48.072;7.800;2022-11-15T05:37:59;98979.69;;;8.96;92.24
63554;BME280;49699;48.072;7.800;2022-11-15T05:40:43;98969.97;;;8.99;92.24
63554;BME280;49699;48.072;7.800;2022-11-15T05:43:27;98976.69;;;9.03;91.88
63554;BME280;49699;48.072;7.800;2022-11-15T05:46:12;98972.16;;;9.07;91.43
63554;BME280;49699;48.072;7.800;2022-11-15T05:48:57;98971.13;;;9.10;91.86
63554;BME280;49699;48.072;7.800;2022-11-15T05:51:41;98974.56;;;9.10;91.73
63554;BME280;49699;48.072;7.800;2022-11-15T05:54:26;98972.81;;;9.11;91.56
63554;BME280;49699;48.072;7.800;2022-11-15T05:57:10;98958.91;;;9.12;91.38
63554;BME280;49699;48.072;7.800;2022-11-15T05:59:54;98964.09;;;9.12;91.27
63554;BME280;49699;48.072;7.800;2022-11-15T06:02:38;98960.66;;;9.11;91.29
63554;BME280;49699;48.072;7.800;2022-11-15T06:05:22;98969.19;;;9.13;91.30
63554;BME280;49699;48.072;7.800;2022-11-15T06:08:06;98965.56;;;9.16;90.87
63554;BME280;49699;48.072;7.800;2022-11-15T06:10:50;98974.84;;;9.20;90.70
63554;BME280;49699;48.072;7.800;2022-11-15T06:13:34;98973.00;;;9.22;91.25
63554;BME280;49699;48.072;7.800;2022-11-15T06:16:18;98968.56;;;9.24;90.57
63554;BME280;49699;48.072;7.800;2022-11-15T06:19:02;98956.31;;;9.26;90.63
63554;BME280;49699;48.072;7.800;2022-11-15T06:21:46;98964.00;;;9.27;90.60
63554;BME280;49699;48.072;7.800;2022-11-15T06:24:30;98958.91;;;9.26;91.02
63554;BME280;49699;48.072;7.800;2022-11-15T06:27:14;98974.66;;;9.23;90.73
63554;BME280;49699;48.072;7.800;2022-11-15T06:29:58;98968.81;;;9.19;90.87
63554;BME280;49699;48.072;7.800;2022-11-15T06:32:42;98961.41;;;9.13;90.60
63554;BME280;49699;48.072;7.800;2022-11-15T06:35:26;98968.63;;;9.08;91.44
63554;BME280;49699;48.072;7.800;2022-11-15T06:38:10;98969.63;;;9.05;91.37
63554;BME280;49699;48.072;7.800;2022-11-15T06:40:54;98969.81;;;9.02;91.46
63554;BME280;49699;48.072;7.800;2022-11-15T06:43:38;98972.41;;;9.02;91.51
63554;BME280;49699;48.072;7.800;2022-11-15T06:46:23;98966.47;;;9.00;91.78
63554;BME280;49699;48.072;7.800;2022-11-15T06:49:06;98973.50;;;8.98;91.41
63554;BME280;49699;48.072;7.800;2022-11-15T06:51:50;98972.88;;;8.95;91.75
63554;BME280;49699;48.072;7.800;2022-11-15T06:54:34;98967.69;;;8.95;91.83
63554;BME280;49699;48.072;7.800;2022-11-15T06:57:18;98971.91;;;8.96;91.90
63554;BME280;49699;48.072;7.800;2022-11-15T07:00:06;98968.59;;;8.94;92.00
63554;BME280;49699;48.072;7.800;2022-11-15T07:02:50;98972.03;;;8.94;92.15
63554;BME280;49699;48.072;7.800;2022-11-15T07:05:34;98960.81;;;8.94;92.00
63554;BME280;49699;48.072;7.800;2022-11-15T07:08:18;98958.94;;;8.96;91.93
63554;BME280;49699;48.072;7.800;2022-11-15T07:11:03;98964.03;;;8.97;92.15
63554;BME280;49699;48.072;7.800;2022-11-15T07:13:47;98961.38;;;8.99;92.20
63554;BME280;49699;48.072;7.800;2022-11-15T07:16:31;98961.28;;;9.00;91.90
63554;BME280;49699;48.072;7.800;2022-11-15T07:19:15;98968.13;;;9.01;92.19
63554;BME280;49699;48.072;7.800;2022-11-15T07:21:59;98965.44;;;9.03;92.37
63554;BME280;49699;48.072;7.800;2022-11-15T07:24:43;98970.38;;;9.08;91.96
63554;BME280;49699;48.072;7.800;2022-11-15T07:27:27;98970.28;;;9.09;92.05
63554;BME280;49699;48.072;7.800;2022-11-15T07:30:11;98965.03;;;9.11;91.62
63554;BME280;49699;48.072;7.800;2022-11-15T07:32:56;98956.09;;;9.15;91.82
63554;BME280;49699;48.072;7.800;2022-11-15T07:35:40;98960.47;;;9.14;92.03
63554;BME280;49699;48.072;7.800;2022-11-15T07:38:24;98956.75;;;9.18;92.12
63554;BME280;49699;48.072;7.800;2022-11-15T07:41:08;98961.59;;;9.24;91.87
63554;BME280;49699;48.072;7.800;2022-11-15T07:43:52;98956.13;;;9.29;91.57
63554;BME280;49699;48.072;7.800;2022-11-15T07:46:36;98959.28;;;9.34;91.65
63554;BME280;49699;48.072;7.800;2022-11-15T07:49:20;98962.53;;;9.37;91.17
63554;BME280;49699;48.072;7.800;2022-11-15T07:52:03;98958.91;;;9.40;91.33
63554;BME280;49699;48.072;7.800;2022-11-15T07:54:48;98954.28;;;9.45;91.33
63554;BME280;49699;48.072;7.800;2022-11-15T07:57:32;98951.28;;;9.51;91.13
63554;BME280;49699;48.072;7.800;2022-11-15T08:00:16;98955.19;;;9.58;91.12
63554;BME280;49699;48.072;7.800;2022-11-15T08:03:10;98941.84;;;9.64;90.65
63554;BME280;49699;48.072;7.800;2022-11-15T08:05:54;98949.25;;;9.70;90.56
63554;BME280;49699;48.072;7.800;2022-11-15T08:08:38;98953.13;;;9.78;90.71
63554;BME280;49699;48.072;7.800;2022-11-15T08:11:22;98951.84;;;9.85;90.16
63554;BME280;49699;48.072;7.800;2022-11-15T08:14:06;98951.44;;;9.91;89.99
63554;BME280;49699;48.072;7.800;2022-11-15T08:16:50;98945.88;;;9.97;89.99
63554;BME280;49699;48.072;7.800;2022-11-15T08:19:34;98943.59;;;10.05;89.58
63554;BME280;49699;48.072;7.800;2022-11-15T08:22:18;98944.06;;;10.12;89.68
63554;BME280;49699;48.072;7.800;2022-11-15T08:25:02;98945.38;;;10.19;89.21
63554;BME280;49699;48.072;7.800;2022-11-15T08:27:45;98940.50;;;10.27;89.10
63554;BME280;49699;48.072;7.800;2022-11-15T08:30:30;98936.69;;;10.32;89.00
63554;BME280;49699;48.072;7.800;2022-11-15T08:33:14;98945.88;;;10.38;88.81
63554;BME280;49699;48.072;7.800;2022-11-15T08:35:59;98941.94;;;10.45;88.58
63554;BME280;49699;48.072;7.800;2022-11-15T08:38:43;98936.44;;;10.50;88.28
63554;BME280;49699;48.072;7.800;2022-11-15T08:41:28;98936.13;;;10.54;88.14
63554;BME280;49699;48.072;7.800;2022-11-15T08:44:14;98932.38;;;10.58;88.05
63554;BME280;49699;48.072;7.800;2022-11-15T08:46:57;98929.69;;;10.60;88.05
63554;BME280;49699;48.072;7.800;2022-11-15T08:49:41;98932.00;;;10.64;88.08
63554;BME280;49699;48.072;7.800;2022-11-15T08:52:26;98938.66;;;10.68;87.95
63554;BME280;49699;48.072;7.800;2022-11-15T08:55:09;98937.72;;;10.69;87.83
63554;BME280;49699;48.072;7.800;2022-11-15T08:57:53;98939.41;;;10.70;87.97
63554;BME280;49699;48.072;7.800;2022-11-15T09:00:40;98939.50;;;10.69;87.81
63554;BME280;49699;48.072;7.800;2022-11-15T09:03:24;98931.69;;;10.69;88.23
63554;BME280;49699;48.072;7.800;2022-11-15T09:06:08;98937.63;;;10.71;88.15
63554;BME280;49699;48.072;7.800;2022-11-15T09:08:52;98939.41;;;10.70;88.29
63554;BME280;49699;48.072;7.800;2022-11-15T09:11:37;98948.03;;;10.71;88.18
63554;BME280;49699;48.072;7.800;2022-11-15T09:14:20;98950.75;;;10.69;88.23
63554;BME280;49699;48.072;7.800;2022-11-15T09:17:07;98945.75;;;10.66;88.37
63554;BME280;49699;48.072;7.800;2022-11-15T09:19:51;98951.88;;;10.65;88.14
63554;BME280;49699;48.072;7.800;2022-11-15T09:22:36;98942.41;;;10.64;88.45
63554;BME280;49699;48.072;7.800;2022-11-15T09:25:20;98936.06;;;10.68;88.13
63554;BME280;49699;48.072;7.800;2022-11-15T09:28:07;98925.47;;;10.71;88.04
63554;BME280;49699;48.072;7.800;2022-11-15T09:30:51;98916.72;;;10.72;88.13
63554;BME280;49699;48.072;7.800;2022-11-15T09:33:35;98923.59;;;10.73;88.28
63554;BME280;49699;48.072;7.800;2022-11-15T09:36:19;98931.16;;;10.76;88.14
63554;BME280;49699;48.072;7.800;2022-11-15T09:39:03;98928.06;;;10.84;88.16
63554;BME280;49699;48.072;7.800;2022-11-15T09:44:42;98925.66;;;10.94;87.70
63554;BME280;49699;48.072;7.800;2022-11-15T09:50:22;98925.81;;;11.05;87.58
63554;BME280;49699;48.072;7.800;2022-11-15T09:52:53;98921.13;;;11.10;87.26
63554;BME280;49699;48.072;7.800;2022-11-15T09:55:20;98917.25;;;11.16;86.92
63554;BME280;49699;48.072;7.800;2022-11-15T09:57:57;98917.16;;;11.17;87.05
63554;BME280;49699;48.072;7.800;2022-11-15T10:00:29;98916.94;;;11.20;86.87
63554;BME280;49699;48.072;7.800;2022-11-15T10:05:21;98900.06;;;11.26;86.83
63554;BME280;49699;48.072;7.800;2022-11-15T10:12:56;98887.97;;;11.37;86.65
63554;BME280;49699;48.072;7.800;2022-11-15T10:15:22;98894.31;;;11.46;86.49
63554;BME280;49699;48.072;7.800;2022-11-15T10:18:05;98884.06;;;11.56;86.22
63554;BME280;49699;48.072;7.800;2022-11-15T10:23:20;98882.78;;;11.74;85.50
63554;BME280;49699;48.072;7.800;2022-11-15T10:25:46;98880.59;;;11.80;85.27
63554;BME280;49699;48.072;7.800;2022-11-15T10:28:21;98871.59;;;11.85;85.18
63554;BME280;49699;48.072;7.800;2022-11-15T10:30:48;98860.00;;;11.89;85.16
63554;BME280;49699;48.072;7.800;2022-11-15T10:41:12;98838.25;;;12.01;84.90
63554;BME280;49699;48.072;7.800;2022-11-15T10:43:38;98835.41;;;12.04;84.78
63554;BME280;49699;48.072;7.800;2022-11-15T10:46:16;98842.91;;;12.08;84.73
63554;BME280;49699;48.072;7.800;2022-11-15T10:48:43;98838.31;;;12.12;84.78
63554;BME280;49699;48.072;7.800;2022-11-15T10:51:18;98836.31;;;12.15;84.67
63554;BME280;49699;48.072;7.800;2022-11-15T10:53:45;98828.25;;;12.18;84.67
63554;BME280;49699;48.072;7.800;2022-11-15T10:56:12;98816.44;;;12.26;84.43
63554;BME280;49699;48.072;7.800;2022-11-15T10:58:44;98817.75;;;12.31;84.27
63554;BME280;49699;48.072;7.800;2022-11-15T11:01:18;98818.94;;;12.38;84.10
63554;BME280;49699;48.072;7.800;2022-11-15T11:03:45;98810.88;;;12.41;83.88
63554;BME280;49699;48.072;7.800;2022-11-15T11:06:24;98809.72;;;12.45;83.71
63554;BME280;49699;48.072;7.800;2022-11-15T11:08:53;98800.00;;;12.47;83.68
63554;BME280;49699;48.072;7.800;2022-11-15T11:11:19;98796.56;;;12.47;83.66
63554;BME280;49699;48.072;7.800;2022-11-15T11:13:44;98787.06;;;12.46;83.80
63554;BME280;49699;48.072;7.800;2022-11-15T11:21:49;98778.97;;;12.38;84.11
63554;BME280;49699;48.072;7.800;2022-11-15T11:29:41;98775.91;;;12.33;84.22
63554;BME280;49699;48.072;7.800;2022-11-15T11:47:31;98740.19;;;12.56;83.64
63554;BME280;49699;48.072;7.800;2022-11-15T11:50:41;98740.69;;;12.61;83.54
63554;BME280;49699;48.072;7.800;2022-11-15T11:52:57;98725.50;;;12.66;83.37
63554;BME280;49699;48.072;7.800;2022-11-15T11:55:32;98722.56;;;12.70;83.32
63554;BME280;49699;48.072;7.800;2022-11-15T11:58:04;98706.50;;;12.75;83.07
63554;BME280;49699;48.072;7.800;2022-11-15T12:00:31;98717.31;;;12.81;83.11
63554;BME280;49699;48.072;7.800;2022-11-15T12:05:41;98712.47;;;12.88;83.08
63554;BME280;49699;48.072;7.800;2022-11-15T12:10:43;98687.03;;;12.90;82.84
63554;BME280;49699;48.072;7.800;2022-11-15T12:13:15;98694.75;;;12.92;82.94
63554;BME280;49699;48.072;7.800;2022-11-15T12:18:13;98682.63;;;12.91;83.25
63554;BME280;49699;48.072;7.800;2022-11-15T12:20:40;98665.06;;;12.93;83.40
63554;BME280;49699;48.072;7.800;2022-11-15T12:23:13;98664.94;;;12.94;83.18
63554;BME280;49699;48.072;7.800;2022-11-15T12:25:48;98656.97;;;12.96;83.18
63554;BME280;49699;48.072;7.800;2022-11-15T12:28:20;98652.47;;;12.98;83.39
63554;BME280;49699;48.072;7.800;2022-11-15T12:33:32;98637.75;;;12.97;83.43
63554;BME280;49699;48.072;7.800;2022-11-15T12:36:01;98641.44;;;12.94;83.56
63554;BME280;49699;48.072;7.800;2022-11-15T12:41:17;98643.59;;;12.89;84.03
63554;BME280;49699;48.072;7.800;2022-11-15T12:43:43;98639.69;;;12.83;84.33
63554;BME280;49699;48.072;7.800;2022-11-15T12:46:13;98639.94;;;12.80;84.31
63554;BME280;49699;48.072;7.800;2022-11-15T12:51:09;98634.13;;;12.77;84.70
63554;BME280;49699;48.072;7.800;2022-11-15T12:53:34;98623.78;;;12.75;84.84
63554;BME280;49699;48.072;7.800;2022-11-15T12:58:39;98613.03;;;12.69;85.20
63554;BME280;49699;48.072;7.800;2022-11-15T13:01:06;98614.78;;;12.68;85.14
63554;BME280;49699;48.072;7.800;2022-11-15T13:03:32;98610.66;;;12.66;85.19
63554;BME280;49699;48.072;7.800;2022-11-15T13:05:58;98603.75;;;12.65;85.19
63554;BME280;49699;48.072;7.800;2022-11-15T13:08:35;98598.53;;;12.65;85.28
63554;BME280;49699;48.072;7.800;2022-11-15T13:11:24;98596.88;;;12.64;85.33
63554;BME280;49699;48.072;7.800;2022-11-15T13:13:45;98591.78;;;12.62;85.37
63554;BME280;49699;48.072;7.800;2022-11-15T13:16:11;98584.78;;;12.63;85.49
63554;BME280;49699;48.072;7.800;2022-11-15T13:18:43;98583.81;;;12.64;85.38
63554;BME280;49699;48.072;7.800;2022-11-15T13:21:19;98579.56;;;12.63;85.51
63554;BME280;49699;48.072;7.800;2022-11-15T13:24:09;98578.84;;;12.61;85.42
63554;BME280;49699;48.072;7.800;2022-11-15T13:26:35;98571.97;;;12.60;85.54
63554;BME280;49699;48.072;7.800;2022-11-15T13:29:03;98563.44;;;12.58;85.60
63554;BME280;49699;48.072;7.800;2022-11-15T13:31:29;98565.31;;;12.56;85.74
63554;BME280;49699;48.072;7.800;2022-11-15T13:33:57;98566.28;;;12.55;85.83
63554;BME280;49699;48.072;7.800;2022-11-15T13:36:27;98554.31;;;12.52;85.79
63554;BME280;49699;48.072;7.800;2022-11-15T13:39:00;98553.38;;;12.53;86.02
63554;BME280;49699;48.072;7.800;2022-11-15T13:41:27;98538.78;;;12.50;86.04
63554;BME280;49699;48.072;7.800;2022-11-15T13:43:53;98542.56;;;12.46;86.15
63554;BME280;49699;48.072;7.800;2022-11-15T13:48:45;98526.56;;;12.40;86.53
63554;BME280;49699;48.072;7.800;2022-11-15T13:51:33;98533.69;;;12.38;86.55
63554;BME280;49699;48.072;7.800;2022-11-15T13:54:03;98518.41;;;12.33;86.81
63554;BME280;49699;48.072;7.800;2022-11-15T13:56:32;98518.53;;;12.32;86.93
63554;BME280;49699;48.072;7.800;2022-11-15T13:58:59;98516.88;;;12.31;87.03
63554;BME280;49699;48.072;7.800;2022-11-15T14:01:24;98511.66;;;12.31;87.13
63554;BME280;49699;48.072;7.800;2022-11-15T14:03:54;98510.00;;;12.30;87.02
63554;BME280;49699;48.072;7.800;2022-11-15T14:06:21;98514.38;;;12.29;87.18
63554;BME280;49699;48.072;7.800;2022-11-15T14:11:31;98499.56;;;12.30;86.90
63554;BME280;49699;48.072;7.800;2022-11-15T14:14:02;98501.22;;;12.31;87.02
63554;BME280;49699;48.072;7.800;2022-11-15T14:16:47;98498.63;;;12.31;86.76
63554;BME280;49699;48.072;7.800;2022-11-15T14:24:30;98483.78;;;12.31;86.59
63554;BME280;49699;48.072;7.800;2022-11-15T14:26:56;98483.78;;;12.31;86.60
63554;BME280;49699;48.072;7.800;2022-11-15T14:29:22;98480.22;;;12.32;86.40
63554;BME280;49699;48.072;7.800;2022-11-15T14:31:48;98462.78;;;12.33;86.43
63554;BME280;49699;48.072;7.800;2022-11-15T14:34:13;98460.06;;;12.34;86.30
63554;BME280;49699;48.072;7.800;2022-11-15T14:36:39;98458.97;;;12.37;86.06
63554;BME280;49699;48.072;7.800;2022-11-15T14:39:04;98455.41;;;12.38;85.96
63554;BME280;49699;48.072;7.800;2022-11-15T14:41:33;98452.78;;;12.38;85.94
63554;BME280;49699;48.072;7.800;2022-11-15T14:43:59;98455.16;;;12.41;85.81
63554;BME280;49699;48.072;7.800;2022-11-15T14:46:24;98451.59;;;12.42;85.76
63554;BME280;49699;48.072;7.800;2022-11-15T14:48:50;98445.56;;;12.41;86.05
63554;BME280;49699;48.072;7.800;2022-11-15T14:51:16;98444.84;;;12.39;85.68
63554;BME280;49699;48.072;7.800;2022-11-15T14:53:42;98447.44;;;12.39;85.71
63554;BME280;49699;48.072;7.800;2022-11-15T14:56:08;98437.97;;;12.38;85.71
63554;BME280;49699;48.072;7.800;2022-11-15T14:58:34;98440.84;;;12.35;85.68
63554;BME280;49699;48.072;7.800;2022-11-15T15:00:59;98435.03;;;12.32;85.68
63554;BME280;49699;48.072;7.800;2022-11-15T15:03:24;98427.47;;;12.29;85.81
63554;BME280;49699;48.072;7.800;2022-11-15T15:05:50;98425.09;;;12.26;85.88
63554;BME280;49699;48.072;7.800;2022-11-15T15:08:15;98427.81;;;12.24;85.87
63554;BME280;49699;48.072;7.800;2022-11-15T15:10:41;98419.53;;;12.19;86.14
63554;BME280;49699;48.072;7.800;2022-11-15T15:13:25;98422.28;;;12.18;86.10
63554;BME280;49699;48.072;7.800;2022-11-15T15:15:51;98417.53;;;12.11;86.21
63554;BME280;49699;48.072;7.800;2022-11-15T15:18:17;98414.34;;;12.08;86.23
63554;BME280;49699;48.072;7.800;2022-11-15T15:20:43;98410.19;;;12.05;86.50
63554;BME280;49699;48.072;7.800;2022-11-15T15:23:14;98401.91;;;12.00;86.79
63554;BME280;49699;48.072;7.800;2022-11-15T15:25:40;98403.00;;;11.98;86.82
63554;BME280;49699;48.072;7.800;2022-11-15T15:28:07;98399.81;;;11.94;86.87
63554;BME280;49699;48.072;7.800;2022-11-15T15:30:32;98392.22;;;11.91;87.04
63554;BME280;49699;48.072;7.800;2022-11-15T15:32:57;98388.09;;;11.89;87.07
63554;BME280;49699;48.072;7.800;2022-11-15T15:35:23;98392.59;;;11.87;87.39
63554;BME280;49699;48.072;7.800;2022-11-15T15:37:49;98391.03;;;11.84;87.32
63554;BME280;49699;48.072;7.800;2022-11-15T15:40:16;98382.66;;;11.80;87.40
63554;BME280;49699;48.072;7.800;2022-11-15T15:42:42;98379.34;;;11.78;87.59
63554;BME280;49699;48.072;7.800;2022-11-15T15:45:08;98379.66;;;11.74;87.61
63554;BME280;49699;48.072;7.800;2022-11-15T15:47:34;98384.06;;;11.73;87.78
63554;BME280;49699;48.072;7.800;2022-11-15T15:49:59;98385.25;;;11.69;87.88
63554;BME280;49699;48.072;7.800;2022-11-15T15:52:24;98381.22;;;11.65;87.94
63554;BME280;49699;48.072;7.800;2022-11-15T15:54:50;98386.81;;;11.61;87.97